Time;durP1;ratioP1;P1;durP2;ratioP2;P2;SDS_P1;SDS_P2;PMS_P1;PMS_P2;Temp;Humidity;BMP_temperature;BMP_pressure;BME280_temperature;BME280_humidity;BME280_pressure;Samples;Min_cycle;Max_cycle;Signal;HPM_P1;HPM_P2
2023/12/11 00:01:30;;;;;;;4.22;1.17;;;;;;;-148.14;100.00;65945.72;4958046;28;20109;-88
2023/12/11 00:04:17;;;;;;;5.43;1.73;;;;;;;-148.14;100.00;65945.72;4943601;28;20521;-89
2023/12/11 00:07:07;;;;;;;3.65;1.58;;;;;;;-148.14;100.00;65945.72;4954455;28;20078;-89
2023/12/11 00:09:51;;;;;;;5.07;1.70;;;;;;;-148.14;100.00;65945.72;4966756;28;20042;-89
2023/12/11 00:20:02;;;;;;;9.63;3.85;;;;;;;-148.14;100.00;65945.72;4960869;28;20073;-89
2023/12/11 00:22:54;;;;;;;9.02;5.25;;;;;;;-148.14;100.00;65945.72;4955578;28;20067;-88
2023/12/11 00:25:45;;;;;;;8.65;4.28;;;;;;;-148.14;100.00;65945.72;4953090;28;20397;-88
2023/12/11 00:28:41;;;;;;;6.28;3.85;;;;;;;-148.14;100.00;65945.72;4948960;28;20421;-90
2023/12/11 00:31:39;;;;;;;4.45;2.95;;;;;;;-148.14;100.00;65945.72;4952031;28;20109;-88
2023/12/11 00:34:23;;;;;;;2.78;2.25;;;;;;;-148.14;100.00;65945.72;4949136;29;20082;-90
2023/12/11 00:37:17;;;;;;;4.15;2.17;;;;;;;-148.14;100.00;65945.72;4948944;28;20160;-88
2023/12/11 00:40:05;;;;;;;5.30;1.33;;;;;;;-148.14;100.00;65945.72;4958672;28;20054;-89
2023/12/11 01:10:28;;;;;;;16.50;3.33;;;;;;;-148.14;100.00;65945.72;4836379;29;20061;-88
2023/12/11 01:21:04;;;;;;;11.13;3.10;;;;;;;-148.14;100.00;65945.72;4830064;29;20057;-87
2023/12/11 01:24:15;;;;;;;15.68;4.28;;;;;;;-148.14;100.00;65945.72;4817065;29;20926;-89
2023/12/11 01:27:08;;;;;;;24.83;3.40;;;;;;;-148.14;100.00;65945.72;4834322;29;20069;-87
2023/12/11 01:29:52;;;;;;;19.38;3.03;;;;;;;-148.14;100.00;65945.72;4822785;29;20053;-88
2023/12/11 01:32:36;;;;;;;14.60;3.83;;;;;;;-148.14;100.00;65945.72;4931862;29;20043;-86
2023/12/11 01:35:47;;;;;;;23.15;3.83;;;;;;;-148.14;100.00;65945.72;4927958;29;20070;-88
2023/12/11 01:38:33;;;;;;;22.30;4.53;;;;;;;-148.14;100.00;65945.72;4914144;29;20149;-88
2023/12/11 01:41:26;;;;;;;12.77;3.30;;;;;;;-148.14;100.00;65945.72;4946111;29;20055;-87
2023/12/11 01:44:16;;;;;;;9.38;3.42;;;;;;;-148.14;100.00;65945.72;4948455;29;20147;-90
2023/12/11 01:47:05;;;;;;;13.20;3.55;;;;;;;-148.14;100.00;65945.72;4949054;29;20516;-90
2023/12/11 01:49:53;;;;;;;15.20;3.90;;;;;;;-148.14;100.00;65945.72;4947610;29;20054;-91
2023/12/11 01:52:44;;;;;;;19.48;4.78;;;;;;;-148.14;100.00;65945.72;4929964;29;20052;-91
2023/12/11 01:55:42;;;;;;;16.10;3.72;;;;;;;-148.14;100.00;65945.72;4944428;29;20094;-92
2023/12/11 01:58:36;;;;;;;11.15;3.78;;;;;;;-148.14;100.00;65945.72;4949253;29;20054;-90
2023/12/11 02:05:21;;;;;;;7.97;2.72;;;;;;;-148.14;100.00;65945.72;4965283;29;20057;-91
2023/12/11 02:16:22;;;;;;;7.47;3.13;;;;;;;-148.14;100.00;65945.72;4965481;29;20058;-92
2023/12/11 02:19:12;;;;;;;16.67;4.05;;;;;;;-148.14;100.00;65945.72;4950468;29;20125;-89
2023/12/11 02:22:04;;;;;;;12.88;4.35;;;;;;;-148.14;100.00;65945.72;4945900;29;20174;-92
2023/12/11 02:25:01;;;;;;;17.30;5.22;;;;;;;-148.14;100.00;65945.72;4954455;29;20070;-91
2023/12/11 02:27:45;;;;;;;11.85;4.93;;;;;;;-148.14;100.00;65945.72;4959732;29;20046;-91
2023/12/11 02:30:33;;;;;;;15.25;4.88;;;;;;;-148.14;100.00;65945.72;4961612;29;20102;-89
2023/12/11 02:33:17;;;;;;;11.02;5.20;;;;;;;-148.14;100.00;65945.72;4961123;29;20079;-91
2023/12/11 02:36:02;;;;;;;12.23;5.07;;;;;;;-148.14;100.00;65945.72;4948342;29;20048;-89
2023/12/11 02:38:47;;;;;;;18.02;5.35;;;;;;;-148.14;100.00;65945.72;4943126;29;20043;-90
2023/12/11 02:41:31;;;;;;;17.92;4.60;;;;;;;-148.14;100.00;65945.72;4934927;29;20453;-89
2023/12/11 02:44:16;;;;;;;15.00;5.70;;;;;;;-148.14;100.00;65945.72;4930316;29;20042;-89
2023/12/11 02:47:00;;;;;;;18.52;5.55;;;;;;;-148.14;100.00;65945.72;4949303;29;20062;-91
2023/12/11 02:49:45;;;;;;;14.98;4.50;;;;;;;-148.14;100.00;65945.72;4951057;29;20456;-90
2023/12/11 02:52:29;;;;;;;14.68;5.07;;;;;;;-148.14;100.00;65945.72;4947908;29;20058;-89
2023/12/11 02:55:17;;;;;;;14.05;4.65;;;;;;;-148.14;100.00;65945.72;4949011;29;20574;-90
2023/12/11 02:58:03;;;;;;;18.25;4.45;;;;;;;-148.14;100.00;65945.72;4948079;29;20249;-90
2023/12/11 03:00:47;;;;;;;16.63;4.00;;;;;;;-148.14;100.00;65945.72;4947418;29;20054;-90
2023/12/11 03:03:32;;;;;;;9.25;3.97;;;;;;;-148.14;100.00;65945.72;4947178;29;20096;-92
2023/12/11 03:06:20;;;;;;;5.47;2.85;;;;;;;-148.14;100.00;65945.72;4948574;29;20150;-89
2023/12/11 03:09:07;;;;;;;7.57;2.60;;;;;;;-148.14;100.00;65945.72;4948853;29;20046;-92
2023/12/11 03:11:53;;;;;;;10.15;3.00;;;;;;;-148.14;100.00;65945.72;4954760;29;20082;-90
2023/12/11 03:14:38;;;;;;;6.57;2.40;;;;;;;-148.14;100.00;65945.72;4954105;29;20050;-91
2023/12/11 03:17:22;;;;;;;10.98;2.35;;;;;;;-148.14;100.00;65945.72;4953096;29;20062;-90
2023/12/11 03:20:12;;;;;;;10.23;2.63;;;;;;;-148.14;100.00;65945.72;4953147;29;20047;-91
2023/12/11 03:22:56;;;;;;;5.85;2.13;;;;;;;-148.14;100.00;65945.72;4953771;29;20516;-90
2023/12/11 03:25:41;;;;;;;7.00;2.10;;;;;;;-148.14;100.00;65945.72;4961573;28;20053;-90
2023/12/11 03:28:28;;;;;;;7.90;2.20;;;;;;;-148.14;100.00;65945.72;4962375;29;20050;-91
2023/12/11 03:31:12;;;;;;;11.88;2.22;;;;;;;-148.14;100.00;65945.72;4950704;29;20050;-90
2023/12/11 03:33:56;;;;;;;9.38;2.72;;;;;;;-148.14;100.00;65945.72;4964097;28;20081;-91
2023/12/11 03:36:40;;;;;;;11.48;3.00;;;;;;;-148.14;100.00;65945.72;4944069;29;20052;-88
2023/12/11 03:39:25;;;;;;;19.23;3.92;;;;;;;-148.14;100.00;65945.72;4954739;28;20504;-88
2023/12/11 03:42:09;;;;;;;13.93;3.63;;;;;;;-148.14;100.00;65945.72;4950507;28;20069;-89
2023/12/11 03:44:54;;;;;;;13.27;5.07;;;;;;;-148.14;100.00;65945.72;4951766;28;20472;-88
2023/12/11 03:47:38;;;;;;;14.85;5.65;;;;;;;-148.14;100.00;65945.72;4949673;28;20037;-87
2023/12/11 03:50:22;;;;;;;20.65;4.90;;;;;;;-148.14;100.00;65945.72;4947361;28;20050;-87
2023/12/11 03:53:06;;;;;;;15.35;5.30;;;;;;;-148.14;100.00;65945.72;4948735;28;20116;-88
2023/12/11 03:55:50;;;;;;;19.60;5.75;;;;;;;-148.14;100.00;65945.72;4951587;28;20049;-85
2023/12/11 03:58:34;;;;;;;18.67;7.22;;;;;;;-148.14;100.00;65945.72;4946832;28;20046;-87
2023/12/11 04:01:19;;;;;;;27.20;7.47;;;;;;;-148.14;100.00;65945.72;4962748;28;20046;-87
2023/12/11 04:04:03;;;;;;;20.15;6.80;;;;;;;-148.14;100.00;65945.72;4948842;28;20182;-88
2023/12/11 04:06:47;;;;;;;23.90;6.88;;;;;;;-148.14;100.00;65945.72;4952380;28;20152;-88
2023/12/11 04:09:32;;;;;;;26.50;6.90;;;;;;;-148.14;100.00;65945.72;4950006;28;20125;-89
2023/12/11 04:12:21;;;;;;;24.35;7.22;;;;;;;-148.14;100.00;65945.72;4950575;28;20157;-86
2023/12/11 04:15:05;;;;;;;24.00;7.13;;;;;;;-148.14;100.00;65945.72;4950600;28;20101;-88
2023/12/11 04:17:50;;;;;;;30.30;6.93;;;;;;;-148.14;100.00;65945.72;4950355;28;20507;-88
2023/12/11 04:20:34;;;;;;;26.70;8.18;;;;;;;-148.14;100.00;65945.72;4947301;28;20579;-90
2023/12/11 04:23:18;;;;;;;34.38;8.82;;;;;;;-148.14;100.00;65945.72;4942128;28;20579;-86
2023/12/11 04:26:03;;;;;;;22.60;7.68;;;;;;;-148.14;100.00;65945.72;4960984;28;20082;-87
2023/12/11 04:28:47;;;;;;;35.22;6.50;;;;;;;-148.14;100.00;65945.72;4965325;28;20080;-87
2023/12/11 04:31:30;;;;;;;19.88;5.47;;;;;;;-148.14;100.00;65945.72;4946281;28;20050;-86
2023/12/11 04:34:14;;;;;;;20.40;6.57;;;;;;;-148.14;100.00;65945.72;4951047;28;20042;-86
2023/12/11 04:36:58;;;;;;;35.42;7.22;;;;;;;-148.14;100.00;65945.72;4947118;28;20104;-88
2023/12/11 04:39:43;;;;;;;27.00;5.55;;;;;;;-148.14;100.00;65945.72;4952236;28;20046;-87
2023/12/11 04:42:27;;;;;;;23.92;5.50;;;;;;;-148.14;100.00;65945.72;4948600;28;20105;-87
2023/12/11 04:45:11;;;;;;;17.38;4.82;;;;;;;-148.14;100.00;65945.72;4945864;28;20504;-88
2023/12/11 04:47:56;;;;;;;21.10;5.22;;;;;;;-148.14;100.00;65945.72;4946965;28;20050;-86
2023/12/11 04:50:40;;;;;;;24.73;5.20;;;;;;;-148.14;100.00;65945.72;4943685;28;20464;-86
2023/12/11 04:53:24;;;;;;;34.83;6.18;;;;;;;-148.14;100.00;65945.72;4945187;28;20070;-87
2023/12/11 04:56:08;;;;;;;23.05;5.22;;;;;;;-148.14;100.00;65945.72;4948868;28;20169;-88
2023/12/11 04:58:52;;;;;;;19.25;5.35;;;;;;;-148.14;100.00;65945.72;4948674;28;20097;-86
2023/12/11 05:01:36;;;;;;;27.63;6.03;;;;;;;-148.14;100.00;65945.72;4953427;28;20041;-88
2023/12/11 05:04:21;;;;;;;20.98;5.30;;;;;;;-148.14;100.00;65945.72;4959569;28;20113;-86
2023/12/11 05:07:06;;;;;;;21.83;5.57;;;;;;;-148.14;100.00;65945.72;4958780;28;20169;-88
2023/12/11 05:09:50;;;;;;;17.90;4.57;;;;;;;-148.14;100.00;65945.72;4941865;28;20074;-90
2023/12/11 05:12:34;;;;;;;26.15;5.53;;;;;;;-148.14;100.00;65945.72;4947611;28;20057;-88
2023/12/11 05:15:18;;;;;;;21.17;4.95;;;;;;;-148.14;100.00;65945.72;4947265;28;20069;-88
2023/12/11 05:18:02;;;;;;;19.00;4.72;;;;;;;-148.14;100.00;65945.72;4941107;28;20050;-87
2023/12/11 05:20:50;;;;;;;23.02;5.25;;;;;;;-148.14;100.00;65945.72;4960347;28;20049;-87
2023/12/11 05:23:34;;;;;;;21.60;4.93;;;;;;;-148.14;100.00;65945.72;4944826;28;20057;-87
2023/12/11 05:26:19;;;;;;;21.27;5.78;;;;;;;-148.14;100.00;65945.72;4947849;28;20803;-87
2023/12/11 05:29:04;;;;;;;15.95;4.43;;;;;;;-148.14;100.00;65945.72;4946669;28;20057;-87
2023/12/11 05:31:48;;;;;;;20.92;4.00;;;;;;;-148.14;100.00;65945.72;4948249;28;20030;-89
2023/12/11 05:34:32;;;;;;;21.83;4.68;;;;;;;-148.14;100.00;65945.72;4962779;28;20038;-88
2023/12/11 05:37:16;;;;;;;17.58;4.53;;;;;;;-148.14;100.00;65945.72;4961729;28;20074;-86
2023/12/11 05:40:00;;;;;;;19.85;4.78;;;;;;;-148.14;100.00;65945.72;4941605;28;20115;-88
2023/12/11 05:42:44;;;;;;;18.33;4.90;;;;;;;-148.14;100.00;65945.72;4953808;28;20050;-89
2023/12/11 05:45:28;;;;;;;14.98;4.38;;;;;;;-148.14;100.00;65945.72;4949488;28;20039;-88
2023/12/11 05:48:18;;;;;;;20.13;4.13;;;;;;;-148.14;100.00;65945.72;4946727;28;20046;-89
2023/12/11 05:51:08;;;;;;;26.27;4.88;;;;;;;-148.14;100.00;65945.72;4945552;28;20118;-87
2023/12/11 05:53:55;;;;;;;20.70;5.68;;;;;;;-148.14;100.00;65945.72;4963339;28;20397;-88
2023/12/11 05:56:39;;;;;;;24.92;4.07;;;;;;;-148.14;100.00;65945.72;4946381;28;20450;-86
2023/12/11 05:59:27;;;;;;;17.55;4.20;;;;;;;-148.14;100.00;65945.72;4949106;28;20517;-87
2023/12/11 06:02:11;;;;;;;21.55;4.25;;;;;;;-148.14;100.00;65945.72;4946220;28;20070;-86
2023/12/11 06:04:55;;;;;;;22.13;4.72;;;;;;;-148.14;100.00;65945.72;4945171;28;20122;-88
2023/12/11 06:07:39;;;;;;;18.40;3.70;;;;;;;-148.14;100.00;65945.72;4943135;28;20043;-87
2023/12/11 06:10:24;;;;;;;9.27;3.08;;;;;;;-148.14;100.00;65945.72;4945460;28;20959;-87
2023/12/11 06:13:08;;;;;;;16.27;3.17;;;;;;;-148.14;100.00;65945.72;4944014;28;20053;-87
2023/12/11 06:15:52;;;;;;;11.25;2.88;;;;;;;-148.14;100.00;65945.72;4959951;28;20050;-86
2023/12/11 06:18:38;;;;;;;10.38;4.18;;;;;;;-148.14;100.00;65945.72;4945803;28;20061;-90
2023/12/11 06:21:29;;;;;;;7.68;3.35;;;;;;;-148.14;100.00;65945.72;4947950;28;20061;-89
2023/12/11 06:24:13;;;;;;;10.60;3.13;;;;;;;-148.14;100.00;65945.72;4951213;28;20078;-86
2023/12/11 06:26:57;;;;;;;13.80;3.47;;;;;;;-148.14;100.00;65945.72;4949436;28;20515;-89
2023/12/11 06:29:41;;;;;;;8.48;3.60;;;;;;;-148.14;100.00;65945.72;4951879;28;20061;-86
2023/12/11 06:32:26;;;;;;;16.75;3.65;;;;;;;-148.14;100.00;65945.72;4952072;28;20042;-86
2023/12/11 06:35:10;;;;;;;20.73;4.88;;;;;;;-148.14;100.00;65945.72;4950217;28;20042;-86
2023/12/11 06:37:55;;;;;;;12.90;3.65;;;;;;;-148.14;100.00;65945.72;4960354;28;20077;-87
2023/12/11 06:40:39;;;;;;;20.30;5.13;;;;;;;-148.14;100.00;65945.72;4963787;28;20050;-87
2023/12/11 06:43:23;;;;;;;18.42;4.15;;;;;;;-148.14;100.00;65945.72;4950900;28;20452;-87
2023/12/11 06:46:11;;;;;;;15.38;3.95;;;;;;;-148.14;100.00;65945.72;4952272;28;20050;-86
2023/12/11 06:48:58;;;;;;;18.02;3.92;;;;;;;-148.14;100.00;65945.72;4951793;28;20073;-89
2023/12/11 06:52:27;;;;;;;21.25;4.22;;;;;;;-148.14;100.00;65945.72;4948735;28;20056;-87
2023/12/11 06:55:23;;;;;;;12.77;3.58;;;;;;;-148.14;100.00;65945.72;4949021;28;20054;-88
2023/12/11 06:58:36;;;;;;;17.98;4.43;;;;;;;-148.14;100.00;65945.72;4967341;28;20049;-88
2023/12/11 07:01:20;;;;;;;21.52;4.22;;;;;;;-148.14;100.00;65945.72;4961557;28;20789;-87
2023/12/11 07:05:01;;;;;;;19.15;4.30;;;;;;;-148.14;100.00;65945.72;4947459;28;20066;-90
2023/12/11 07:07:45;;;;;;;14.40;3.85;;;;;;;-148.14;100.00;65945.72;4953025;28;20050;-88
2023/12/11 07:10:29;;;;;;;21.48;3.35;;;;;;;-148.14;100.00;65945.72;4947976;28;20058;-89
2023/12/11 07:13:12;;;;;;;14.23;3.75;;;;;;;-148.14;100.00;65945.72;4947047;28;20516;-87
2023/12/11 07:15:57;;;;;;;11.65;2.88;;;;;;;-148.14;100.00;65945.72;4969686;28;20041;-88
2023/12/11 07:18:41;;;;;;;16.67;3.53;;;;;;;-148.14;100.00;65945.72;4947665;28;20046;-89
2023/12/11 07:21:25;;;;;;;16.95;3.50;;;;;;;-148.14;100.00;65945.72;4962380;28;20630;-87
2023/12/11 07:24:21;;;;;;;11.52;3.53;;;;;;;-148.14;100.00;65945.72;4964327;28;20050;-87
2023/12/11 07:28:09;;;;;;;15.00;3.55;;;;;;;-148.14;100.00;65945.72;4955138;28;20404;-87
2023/12/11 07:39:45;;;;;;;9.10;2.75;;;;;;;-148.14;100.00;65945.72;4965213;28;20038;-87
2023/12/11 07:42:40;;;;;;;;;;;;;;;;;;;;;
2023/12/11 07:45:56;;;;;;;14.77;3.15;;;;;;;-148.14;100.00;65945.72;4962816;28;20053;-87
2023/12/11 07:49:31;;;;;;;12.15;3.20;;;;;;;-148.14;100.00;65945.72;4946187;28;20086;-89
2023/12/11 07:52:56;;;;;;;13.63;3.15;;;;;;;-148.14;100.00;65945.72;4953602;28;20117;-88
2023/12/11 07:59:44;;;;;;;9.05;2.78;;;;;;;-148.14;100.00;65945.72;4967356;28;20046;-91
2023/12/11 08:02:40;;;;;;;9.45;2.90;;;;;;;-148.14;100.00;65945.72;4965348;28;20066;-88
2023/12/11 08:05:25;;;;;;;7.72;2.10;;;;;;;-148.14;100.00;65945.72;4924114;28;20046;-90
2023/12/11 08:08:09;;;;;;;7.57;2.08;;;;;;;-148.14;100.00;65945.72;4950595;28;20078;-88
2023/12/11 08:10:54;;;;;;;7.90;2.13;;;;;;;-148.14;100.00;65945.72;4955928;28;20520;-89
2023/12/11 08:13:38;;;;;;;9.10;2.60;;;;;;;-148.14;100.00;65945.72;4950620;28;20037;-89
2023/12/11 08:16:23;;;;;;;5.22;2.53;;;;;;;-148.14;100.00;65945.72;4952289;28;20842;-89
2023/12/11 08:19:07;;;;;;;10.52;2.50;;;;;;;-148.14;100.00;65945.72;4948907;28;20050;-91
2023/12/11 08:21:55;;;;;;;5.43;2.70;;;;;;;-148.14;100.00;65945.72;4953311;28;20113;-88
2023/12/11 08:24:39;;;;;;;14.15;2.60;;;;;;;-148.14;100.00;65945.72;4949150;28;20045;-89
2023/12/11 08:28:15;;;;;;;11.50;3.30;;;;;;;-148.14;100.00;65945.72;4969532;28;20101;-90
2023/12/11 08:30:59;;;;;;;9.93;3.00;;;;;;;-148.14;100.00;65945.72;4948378;28;20042;-90
2023/12/11 08:34:46;;;;;;;11.90;3.63;;;;;;;-148.14;100.00;65945.72;4955487;28;20065;-89
2023/12/11 08:37:31;;;;;;;14.48;4.40;;;;;;;-148.14;100.00;65945.72;4949701;28;20102;-88
2023/12/11 08:40:15;;;;;;;19.65;4.60;;;;;;;-148.14;100.00;65945.72;4951353;28;20304;-89
2023/12/11 08:42:59;;;;;;;11.25;3.50;;;;;;;-148.14;100.00;65945.72;4956553;28;20129;-89
2023/12/11 08:45:51;;;;;;;13.65;4.50;;;;;;;-148.14;100.00;65945.72;4948406;28;20089;-89
2023/12/11 08:48:35;;;;;;;11.60;3.72;;;;;;;-148.14;100.00;65945.72;4947294;28;20091;-87
2023/12/11 08:51:20;;;;;;;22.20;4.45;;;;;;;-148.14;100.00;65945.72;4948611;28;20516;-89
2023/12/11 08:54:07;;;;;;;17.65;4.65;;;;;;;-148.14;100.00;65945.72;4956526;28;20151;-88
2023/12/11 08:56:57;;;;;;;11.05;4.15;;;;;;;-148.14;100.00;65945.72;4948714;28;20121;-90
2023/12/11 08:59:41;;;;;;;18.23;3.97;;;;;;;-148.14;100.00;65945.72;4951440;28;20057;-87
2023/12/11 09:02:31;;;;;;;14.18;4.32;;;;;;;-148.14;100.00;65945.72;4950399;28;20057;-87
2023/12/11 09:05:15;;;;;;;15.57;4.88;;;;;;;-148.14;100.00;65945.72;4963624;28;20097;-90
2023/12/11 09:08:17;;;;;;;11.88;4.93;;;;;;;-148.14;100.00;65945.72;4950303;28;20093;-89
2023/12/11 09:11:27;;;;;;;11.65;4.70;;;;;;;-148.14;100.00;65945.72;4948701;28;20054;-88
2023/12/11 09:14:14;;;;;;;12.85;5.53;;;;;;;-148.14;100.00;65945.72;4948285;28;20045;-90
2023/12/11 09:17:01;;;;;;;16.02;5.60;;;;;;;-148.14;100.00;65945.72;4958592;28;20508;-90
2023/12/11 09:19:48;;;;;;;18.33;6.55;;;;;;;-148.14;100.00;65945.72;4966034;28;21053;-89
2023/12/11 09:22:33;;;;;;;21.15;6.72;;;;;;;-148.14;100.00;65945.72;4965872;28;20077;-88
2023/12/11 09:25:17;;;;;;;24.27;6.88;;;;;;;-148.14;100.00;65945.72;4948668;28;20049;-90
2023/12/11 09:28:01;;;;;;;16.52;7.22;;;;;;;-148.14;100.00;65945.72;4962372;28;20624;-88
2023/12/11 09:30:45;;;;;;;23.42;7.45;;;;;;;-148.14;100.00;65945.72;4953804;28;20049;-88
2023/12/11 09:33:31;;;;;;;15.20;7.03;;;;;;;-148.14;100.00;65945.72;4951038;28;20042;-89
2023/12/11 09:36:28;;;;;;;14.00;5.97;;;;;;;-148.14;100.00;65945.72;4961826;28;20078;-89
2023/12/11 09:39:12;;;;;;;16.48;5.60;;;;;;;-148.14;100.00;65945.72;4948722;28;20458;-86
2023/12/11 09:41:57;;;;;;;13.35;5.65;;;;;;;-148.14;100.00;65945.72;4946118;28;20054;-89
2023/12/11 09:44:45;;;;;;;15.02;5.22;;;;;;;-148.14;100.00;65945.72;4947524;28;20081;-91
2023/12/11 09:47:55;;;;;;;28.45;10.35;;;;;;;-148.14;100.00;65945.72;4951165;28;20086;-90
2023/12/11 09:50:40;;;;;;;11.23;6.10;;;;;;;-148.14;100.00;65945.72;4947533;28;20049;-89
2023/12/11 09:53:35;;;;;;;11.43;5.38;;;;;;;-148.14;100.00;65945.72;4952253;28;20114;-90
2023/12/11 09:56:46;;;;;;;9.65;4.68;;;;;;;-148.14;100.00;65945.72;4949473;28;20041;-89
2023/12/11 09:59:33;;;;;;;14.70;4.32;;;;;;;-148.14;100.00;65945.72;4953523;28;20140;-89
2023/12/11 10:02:18;;;;;;;17.65;6.22;;;;;;;-148.14;100.00;65945.72;4950489;28;20042;-89
2023/12/11 10:05:07;;;;;;;15.80;10.35;;;;;;;-148.14;100.00;65945.72;4945773;28;20050;-88
2023/12/11 10:07:52;;;;;;;16.77;8.40;;;;;;;-148.14;100.00;65945.72;4948710;28;20087;-88
2023/12/11 10:10:38;;;;;;;32.30;20.48;;;;;;;-148.14;100.00;65945.72;4948231;28;20073;-91
2023/12/11 10:13:26;;;;;;;7.90;4.40;;;;;;;-148.14;100.00;65945.72;4950373;28;20106;-93
2023/12/11 10:16:36;;;;;;;16.75;6.22;;;;;;;-148.14;100.00;65945.72;4952571;29;20046;-91
2023/12/11 10:19:31;;;;;;;28.60;15.55;;;;;;;-148.14;100.00;65945.72;4953298;29;20062;-90
2023/12/11 10:22:31;;;;;;;17.02;8.60;;;;;;;-148.14;100.00;65945.72;4949498;28;20054;-90
2023/12/11 10:25:37;;;;;;;9.82;4.35;;;;;;;-148.14;100.00;65945.72;4946022;28;20564;-89
2023/12/11 10:28:23;;;;;;;12.63;4.25;;;;;;;-148.14;100.00;65945.72;4949979;28;20058;-88
2023/12/11 10:31:09;;;;;;;8.77;5.00;;;;;;;-148.14;100.00;65945.72;4953836;28;20503;-89
2023/12/11 10:33:53;;;;;;;9.68;4.32;;;;;;;-148.14;100.00;65945.72;4950404;28;20046;-90
2023/12/11 10:36:51;;;;;;;13.63;6.53;;;;;;;-148.14;100.00;65945.72;4949295;28;20104;-88
2023/12/11 10:40:24;;;;;;;11.40;4.90;;;;;;;-148.14;100.00;65945.72;4950328;28;20125;-88
2023/12/11 10:43:08;;;;;;;9.57;4.88;;;;;;;-148.14;100.00;65945.72;4950740;28;20089;-90
2023/12/11 10:45:54;;;;;;;12.48;4.18;;;;;;;-148.14;100.00;65945.72;4950865;28;20126;-89
2023/12/11 10:48:38;;;;;;;8.95;4.03;;;;;;;-148.14;100.00;65945.72;4957673;28;20046;-91
2023/12/11 10:51:22;;;;;;;13.02;3.85;;;;;;;-148.14;100.00;65945.72;4947819;28;20090;-90
2023/12/11 10:54:08;;;;;;;9.05;4.10;;;;;;;-148.14;100.00;65945.72;4949149;28;20115;-92
2023/12/11 10:57:16;;;;;;;9.75;3.20;;;;;;;-148.14;100.00;65945.72;4947241;28;20130;-89
2023/12/11 11:00:01;;;;;;;11.35;3.10;;;;;;;-148.14;100.00;65945.72;4948211;28;20130;-88
2023/12/11 11:02:51;;;;;;;11.40;2.85;;;;;;;-148.14;100.00;65945.72;4959989;28;20113;-90
2023/12/11 11:05:44;;;;;;;8.88;3.85;;;;;;;-148.14;100.00;65945.72;4965459;28;20046;-89
2023/12/11 11:08:51;;;;;;;7.78;5.25;;;;;;;-148.14;100.00;65945.72;4968264;28;20085;-90
2023/12/11 11:11:48;;;;;;;8.70;6.05;;;;;;;-148.14;100.00;65945.72;4976116;28;20078;-92
2023/12/11 11:18:11;;;;;;;18.05;10.40;;;;;;;-148.14;100.00;65945.72;4966699;28;20101;-91
2023/12/11 11:24:50;;;;;;;11.43;3.08;;;;;;;-148.14;100.00;65945.72;4991400;28;20132;-92
2023/12/11 11:27:41;;;;;;;8.73;4.63;;;;;;;-148.14;100.00;65945.72;4977239;28;20046;-92
2023/12/11 11:34:42;;;;;;;4.78;2.13;;;;;;;-148.14;100.00;65945.72;4991633;28;20046;-91
2023/12/11 11:45:53;;;;;;;6.50;4.35;;;;;;;-148.14;100.00;65945.72;4986929;28;20041;-90
2023/12/11 11:56:29;;;;;;;1.00;0.90;;;;;;;-148.14;100.00;65945.72;4989538;28;20131;-91
2023/12/11 11:59:13;;;;;;;3.05;1.25;;;;;;;-148.14;100.00;65945.72;4975888;28;20062;-91
2023/12/11 12:05:55;;;;;;;6.95;1.30;;;;;;;-148.14;100.00;65945.72;4990781;28;20097;-92
2023/12/11 12:08:55;;;;;;;1.63;1.10;;;;;;;-148.14;100.00;65945.72;4975637;28;20053;-90
2023/12/11 12:24:11;;;;;;;4.18;1.70;;;;;;;-148.14;100.00;65945.72;4970727;29;20046;-91
2023/12/11 12:27:01;;;;;;;1.73;1.30;;;;;;;-148.14;100.00;65945.72;4955354;29;20054;-90
2023/12/11 12:29:46;;;;;;;2.35;1.40;;;;;;;-148.14;100.00;65945.72;4956146;29;20046;-90
2023/12/11 12:32:30;;;;;;;3.20;1.52;;;;;;;-148.14;100.00;65945.72;4956501;29;20037;-91
2023/12/11 12:35:48;;;;;;;2.70;1.90;;;;;;;-148.14;100.00;65945.72;4970713;29;20046;-92
2023/12/11 12:38:33;;;;;;;2.03;1.83;;;;;;;-148.14;100.00;65945.72;4955039;29;20049;-92
2023/12/11 12:41:21;;;;;;;3.55;1.80;;;;;;;-148.14;100.00;65945.72;4955125;29;20165;-91
2023/12/11 12:48:04;;;;;;;3.85;3.45;;;;;;;-148.14;100.00;65945.72;4974390;29;20126;-90
2023/12/11 12:51:05;;;;;;;6.07;5.13;;;;;;;-148.14;100.00;65945.72;4963915;29;20042;-91
2023/12/11 12:57:57;;;;;;;9.00;6.50;;;;;;;-148.14;100.00;65945.72;4981123;28;20091;-91
2023/12/11 13:03:25;;;;;;;12.25;7.03;;;;;;;-148.14;100.00;65945.72;4917135;29;20084;-91
2023/12/11 13:06:26;;;;;;;11.85;6.82;;;;;;;-148.14;100.00;65945.72;4901955;29;20055;-90
2023/12/11 13:10:10;;;;;;;;;;;;;;;;;;;;;
2023/12/11 13:16:59;;;;;;;9.93;8.30;;;;;;;-148.14;100.00;65945.72;4913388;29;20060;-90
2023/12/11 13:23:37;;;;;;;10.88;8.35;;;;;;;-148.14;100.00;65945.72;4910766;29;20092;-91
2023/12/11 13:26:22;;;;;;;9.55;8.30;;;;;;;-148.14;100.00;65945.72;4895949;29;20541;-91
2023/12/11 13:29:07;;;;;;;11.15;8.20;;;;;;;-148.14;100.00;65945.72;4880337;29;20129;-90
2023/12/11 13:32:00;;;;;;;7.47;5.25;;;;;;;-148.14;100.00;65945.72;4895092;29;20526;-92
2023/12/11 13:34:49;;;;;;;7.25;5.35;;;;;;;-148.14;100.00;65945.72;4900867;29;20079;-91
2023/12/11 13:37:33;;;;;;;5.00;4.30;;;;;;;-148.14;100.00;65945.72;4872748;29;20044;-90
2023/12/11 13:40:18;;;;;;;7.65;4.30;;;;;;;-148.14;100.00;65945.72;4870281;29;20047;-90
2023/12/11 13:43:03;;;;;;;4.03;3.63;;;;;;;-148.14;100.00;65945.72;4868591;29;20113;-90
2023/12/11 13:45:47;;;;;;;5.95;3.40;;;;;;;-148.14;100.00;65945.72;4902712;29;20136;-88
2023/12/11 13:48:31;;;;;;;9.57;3.38;;;;;;;-148.14;100.00;65945.72;4895686;29;20077;-91
2023/12/11 13:51:15;;;;;;;6.38;3.70;;;;;;;-148.14;100.00;65945.72;4897613;29;20047;-91
2023/12/11 13:53:59;;;;;;;8.90;5.10;;;;;;;-148.14;100.00;65945.72;4905884;29;20054;-89
2023/12/11 13:56:43;;;;;;;8.40;6.00;;;;;;;-148.14;100.00;65945.72;4897795;29;20175;-89
2023/12/11 13:59:28;;;;;;;9.85;7.03;;;;;;;-148.14;100.00;65945.72;4887548;29;20095;-92
2023/12/11 14:02:12;;;;;;;9.93;6.68;;;;;;;-148.14;100.00;65945.72;4896489;29;20056;-88
2023/12/11 14:04:57;;;;;;;9.13;6.30;;;;;;;-148.14;100.00;65945.72;4906254;29;20043;-91
2023/12/11 14:07:41;;;;;;;10.77;7.32;;;;;;;-148.14;100.00;65945.72;4906569;29;20047;-90
2023/12/11 14:10:34;;;;;;;11.35;8.55;;;;;;;-148.14;100.00;65945.72;4906234;29;20043;-88
2023/12/11 14:13:18;;;;;;;9.35;6.80;;;;;;;-148.14;100.00;65945.72;4905875;29;20190;-89
2023/12/11 14:16:05;;;;;;;14.05;11.68;;;;;;;-148.14;100.00;65945.72;4909021;29;20072;-89
2023/12/11 14:18:53;;;;;;;16.65;13.68;;;;;;;-148.14;100.00;65945.72;4905586;29;20046;-89
2023/12/11 14:21:37;;;;;;;21.98;17.13;;;;;;;-148.14;100.00;65945.72;4902084;29;20051;-88
2023/12/11 14:24:21;;;;;;;18.40;13.30;;;;;;;-148.14;100.00;65945.72;4882562;29;20048;-90
2023/12/11 14:27:05;;;;;;;13.38;11.10;;;;;;;-148.14;100.00;65945.72;4904149;29;20055;-89
2023/12/11 14:29:50;;;;;;;14.73;11.32;;;;;;;-148.14;100.00;65945.72;4868577;29;20104;-88
2023/12/11 14:32:36;;;;;;;14.25;11.25;;;;;;;-148.14;100.00;65945.72;4902890;29;20059;-89
2023/12/11 14:35:20;;;;;;;15.02;11.23;;;;;;;-148.14;100.00;65945.72;4919081;29;20075;-90
2023/12/11 14:38:04;;;;;;;13.57;10.80;;;;;;;-148.14;100.00;65945.72;4923777;29;20073;-91
2023/12/11 14:40:49;;;;;;;12.52;9.60;;;;;;;-148.14;100.00;65945.72;4912423;29;20050;-89
2023/12/11 14:43:34;;;;;;;12.90;8.52;;;;;;;-148.14;100.00;65945.72;4916839;29;20459;-91
2023/12/11 14:46:21;;;;;;;10.52;8.32;;;;;;;-148.14;100.00;65945.72;4916610;29;20525;-90
2023/12/11 14:49:09;;;;;;;8.93;7.78;;;;;;;-148.14;100.00;65945.72;4916381;29;20046;-89
2023/12/11 14:51:53;;;;;;;10.63;8.15;;;;;;;-148.14;100.00;65945.72;4915888;29;20401;-91
2023/12/11 14:54:37;;;;;;;11.57;9.45;;;;;;;-148.14;100.00;65945.72;4913872;29;20071;-91
2023/12/11 14:57:22;;;;;;;14.75;9.90;;;;;;;-148.14;100.00;65945.72;4920483;29;20099;-90